sensor_id;sensor_type;location;lat;lon;timestamp;P1;durP1;ratioP1;P2;durP2;ratioP2
56161;SDS011;42045;52.986;6.014;2023-04-01T00:01:25;9.57;;;7.82;;
56161;SDS011;42045;52.986;6.014;2023-04-01T00:03:51;8.75;;;7.95;;
56161;SDS011;42045;52.986;6.014;2023-04-01T00:06:17;9.50;;;8.50;;
56161;SDS011;42045;52.986;6.014;2023-04-01T00:08:43;8.23;;;7.43;;
56161;SDS011;42045;52.986;6.014;2023-04-01T00:11:09;9.02;;;7.65;;
56161;SDS011;42045;52.986;6.014;2023-04-01T00:13:35;9.35;;;7.85;;
56161;SDS011;42045;52.986;6.014;2023-04-01T00:16:01;9.85;;;8.85;;
56161;SDS011;42045;52.986;6.014;2023-04-01T00:18:27;9.50;;;8.50;;
56161;SDS011;42045;52.986;6.014;2023-04-01T00:20:53;9.27;;;8.35;;
56161;SDS011;42045;52.986;6.014;2023-04-01T00:23:19;8.75;;;7.85;;
56161;SDS011;42045;52.986;6.014;2023-04-01T00:25:46;9.43;;;7.72;;
56161;SDS011;42045;52.986;6.014;2023-04-01T00:28:15;8.65;;;7.75;;
56161;SDS011;42045;52.986;6.014;2023-04-01T00:30:42;9.82;;;7.90;;
56161;SDS011;42045;52.986;6.014;2023-04-01T00:33:07;10.32;;;8.07;;
56161;SDS011;42045;52.986;6.014;2023-04-01T00:35:33;8.25;;;7.45;;
56161;SDS011;42045;52.986;6.014;2023-04-01T00:37:59;9.93;;;7.20;;
56161;SDS011;42045;52.986;6.014;2023-04-01T00:43:02;7.85;;;7.00;;
56161;SDS011;42045;52.986;6.014;2023-04-01T00:45:35;9.25;;;7.30;;
56161;SDS011;42045;52.986;6.014;2023-04-01T00:48:04;9.05;;;7.53;;
56161;SDS011;42045;52.986;6.014;2023-04-01T00:50:33;7.95;;;7.00;;
56161;SDS011;42045;52.986;6.014;2023-04-01T00:53:01;6.88;;;6.15;;
56161;SDS011;42045;52.986;6.014;2023-04-01T00:55:28;8.55;;;6.68;;
56161;SDS011;42045;52.986;6.014;2023-04-01T00:57:57;7.95;;;7.15;;
56161;SDS011;42045;52.986;6.014;2023-04-01T01:00:25;7.97;;;7.18;;
56161;SDS011;42045;52.986;6.014;2023-04-01T01:02:51;6.57;;;5.90;;
56161;SDS011;42045;52.986;6.014;2023-04-01T01:05:17;8.32;;;6.45;;
56161;SDS011;42045;52.986;6.014;2023-04-01T01:08:03;8.80;;;6.82;;
56161;SDS011;42045;52.986;6.014;2023-04-01T01:10:40;8.73;;;6.78;;
56161;SDS011;42045;52.986;6.014;2023-04-01T01:15:58;9.73;;;7.75;;
56161;SDS011;42045;52.986;6.014;2023-04-01T01:37:54;9.13;;;6.93;;
56161;SDS011;42045;52.986;6.014;2023-04-01T01:40:24;10.23;;;7.63;;
56161;SDS011;42045;52.986;6.014;2023-04-01T01:42:53;8.35;;;6.90;;
56161;SDS011;42045;52.986;6.014;2023-04-01T01:45:23;9.23;;;6.82;;
56161;SDS011;42045;52.986;6.014;2023-04-01T01:47:51;9.30;;;7.20;;
56161;SDS011;42045;52.986;6.014;2023-04-01T01:50:17;8.25;;;6.97;;
56161;SDS011;42045;52.986;6.014;2023-04-01T01:52:44;8.55;;;7.15;;
56161;SDS011;42045;52.986;6.014;2023-04-01T01:58:11;9.18;;;7.07;;
56161;SDS011;42045;52.986;6.014;2023-04-01T02:01:01;10.00;;;6.95;;
56161;SDS011;42045;52.986;6.014;2023-04-01T02:03:31;8.90;;;7.22;;
56161;SDS011;42045;52.986;6.014;2023-04-01T02:06:01;11.98;;;7.75;;
56161;SDS011;42045;52.986;6.014;2023-04-01T02:08:35;9.13;;;7.15;;
56161;SDS011;42045;52.986;6.014;2023-04-01T02:11:10;8.88;;;7.38;;
56161;SDS011;42045;52.986;6.014;2023-04-01T02:16:18;9.52;;;7.68;;
56161;SDS011;42045;52.986;6.014;2023-04-01T02:18:50;9.40;;;7.30;;
56161;SDS011;42045;52.986;6.014;2023-04-01T02:21:18;8.77;;;6.38;;
56161;SDS011;42045;52.986;6.014;2023-04-01T02:23:47;8.07;;;6.47;;
56161;SDS011;42045;52.986;6.014;2023-04-01T02:26:13;8.20;;;5.80;;
56161;SDS011;42045;52.986;6.014;2023-04-01T02:28:40;7.15;;;6.10;;
56161;SDS011;42045;52.986;6.014;2023-04-01T02:31:08;7.13;;;5.63;;
56161;SDS011;42045;52.986;6.014;2023-04-01T02:33:36;8.02;;;4.93;;
56161;SDS011;42045;52.986;6.014;2023-04-01T02:36:03;4.68;;;3.85;;
56161;SDS011;42045;52.986;6.014;2023-04-01T02:38:30;6.18;;;3.80;;
56161;SDS011;42045;52.986;6.014;2023-04-01T02:40:57;2.95;;;2.20;;
56161;SDS011;42045;52.986;6.014;2023-04-01T02:43:24;2.20;;;1.83;;
56161;SDS011;42045;52.986;6.014;2023-04-01T02:45:50;2.67;;;1.60;;
56161;SDS011;42045;52.986;6.014;2023-04-01T02:48:15;2.47;;;1.63;;
56161;SDS011;42045;52.986;6.014;2023-04-01T02:50:41;2.45;;;1.50;;
56161;SDS011;42045;52.986;6.014;2023-04-01T02:53:07;1.55;;;1.20;;
56161;SDS011;42045;52.986;6.014;2023-04-01T02:55:33;1.52;;;1.00;;
56161;SDS011;42045;52.986;6.014;2023-04-01T02:57:59;1.67;;;1.20;;
56161;SDS011;42045;52.986;6.014;2023-04-01T03:00:25;2.05;;;1.20;;
56161;SDS011;42045;52.986;6.014;2023-04-01T03:02:51;1.67;;;1.10;;
56161;SDS011;42045;52.986;6.014;2023-04-01T03:05:18;2.55;;;0.90;;
56161;SDS011;42045;52.986;6.014;2023-04-01T03:07:44;1.58;;;1.10;;
56161;SDS011;42045;52.986;6.014;2023-04-01T03:10:10;2.22;;;1.48;;
56161;SDS011;42045;52.986;6.014;2023-04-01T03:12:36;3.53;;;1.60;;
56161;SDS011;42045;52.986;6.014;2023-04-01T03:15:01;3.10;;;2.13;;
56161;SDS011;42045;52.986;6.014;2023-04-01T03:17:27;4.70;;;2.22;;
56161;SDS011;42045;52.986;6.014;2023-04-01T03:19:53;6.10;;;2.70;;
56161;SDS011;42045;52.986;6.014;2023-04-01T03:22:19;4.47;;;3.03;;
56161;SDS011;42045;52.986;6.014;2023-04-01T03:24:46;6.07;;;4.32;;
56161;SDS011;42045;52.986;6.014;2023-04-01T03:27:13;7.05;;;4.30;;
56161;SDS011;42045;52.986;6.014;2023-04-01T03:29:39;6.82;;;4.93;;
56161;SDS011;42045;52.986;6.014;2023-04-01T03:32:05;6.85;;;5.03;;
56161;SDS011;42045;52.986;6.014;2023-04-01T03:34:31;6.25;;;4.95;;
56161;SDS011;42045;52.986;6.014;2023-04-01T03:36:57;6.88;;;4.20;;
56161;SDS011;42045;52.986;6.014;2023-04-01T03:39:22;7.60;;;4.55;;
56161;SDS011;42045;52.986;6.014;2023-04-01T03:41:48;6.03;;;4.40;;
56161;SDS011;42045;52.986;6.014;2023-04-01T03:44:14;7.93;;;5.03;;
56161;SDS011;42045;52.986;6.014;2023-04-01T03:46:40;9.68;;;5.32;;
56161;SDS011;42045;52.986;6.014;2023-04-01T03:49:06;6.80;;;4.95;;
56161;SDS011;42045;52.986;6.014;2023-04-01T03:51:37;7.93;;;5.70;;
56161;SDS011;42045;52.986;6.014;2023-04-01T03:54:03;9.48;;;5.65;;
56161;SDS011;42045;52.986;6.014;2023-04-01T03:56:30;8.57;;;6.10;;
56161;SDS011;42045;52.986;6.014;2023-04-01T03:58:55;9.18;;;5.78;;
56161;SDS011;42045;52.986;6.014;2023-04-01T04:01:21;10.40;;;5.47;;
56161;SDS011;42045;52.986;6.014;2023-04-01T04:03:48;8.82;;;5.20;;
56161;SDS011;42045;52.986;6.014;2023-04-01T04:06:14;8.10;;;5.20;;
56161;SDS011;42045;52.986;6.014;2023-04-01T04:08:41;8.32;;;5.75;;
56161;SDS011;42045;52.986;6.014;2023-04-01T04:11:06;11.93;;;6.47;;
56161;SDS011;42045;52.986;6.014;2023-04-01T04:13:33;13.90;;;7.13;;
56161;SDS011;42045;52.986;6.014;2023-04-01T04:15:58;10.10;;;6.18;;
56161;SDS011;42045;52.986;6.014;2023-04-01T04:18:24;11.88;;;7.38;;
56161;SDS011;42045;52.986;6.014;2023-04-01T04:20:50;16.40;;;8.32;;
56161;SDS011;42045;52.986;6.014;2023-04-01T04:23:16;13.07;;;7.07;;
56161;SDS011;42045;52.986;6.014;2023-04-01T04:25:56;9.55;;;6.05;;
56161;SDS011;42045;52.986;6.014;2023-04-01T04:28:24;7.78;;;5.85;;
56161;SDS011;42045;52.986;6.014;2023-04-01T04:30:50;9.30;;;6.47;;
56161;SDS011;42045;52.986;6.014;2023-04-01T04:33:16;12.32;;;6.95;;
56161;SDS011;42045;52.986;6.014;2023-04-01T04:35:42;13.02;;;7.35;;
56161;SDS011;42045;52.986;6.014;2023-04-01T04:38:07;12.88;;;8.35;;
56161;SDS011;42045;52.986;6.014;2023-04-01T04:40:35;20.20;;;10.27;;
56161;SDS011;42045;52.986;6.014;2023-04-01T04:43:02;21.85;;;10.75;;
56161;SDS011;42045;52.986;6.014;2023-04-01T04:45:28;20.40;;;11.65;;
56161;SDS011;42045;52.986;6.014;2023-04-01T04:47:53;17.40;;;10.25;;
56161;SDS011;42045;52.986;6.014;2023-04-01T04:50:19;18.23;;;10.38;;
56161;SDS011;42045;52.986;6.014;2023-04-01T04:52:45;18.35;;;10.82;;
56161;SDS011;42045;52.986;6.014;2023-04-01T04:55:10;20.30;;;12.00;;
56161;SDS011;42045;52.986;6.014;2023-04-01T04:57:36;25.55;;;14.10;;
56161;SDS011;42045;52.986;6.014;2023-04-01T05:00:02;23.88;;;13.60;;
56161;SDS011;42045;52.986;6.014;2023-04-01T05:02:28;26.33;;;14.38;;
56161;SDS011;42045;52.986;6.014;2023-04-01T05:04:54;26.15;;;14.13;;
56161;SDS011;42045;52.986;6.014;2023-04-01T05:07:20;23.30;;;14.75;;
56161;SDS011;42045;52.986;6.014;2023-04-01T05:09:45;21.55;;;14.32;;
56161;SDS011;42045;52.986;6.014;2023-04-01T05:12:12;29.65;;;17.10;;
56161;SDS011;42045;52.986;6.014;2023-04-01T05:14:38;26.55;;;16.83;;
56161;SDS011;42045;52.986;6.014;2023-04-01T05:17:04;27.80;;;17.70;;
56161;SDS011;42045;52.986;6.014;2023-04-01T05:19:33;27.80;;;16.67;;
56161;SDS011;42045;52.986;6.014;2023-04-01T05:21:58;29.90;;;18.15;;
56161;SDS011;42045;52.986;6.014;2023-04-01T05:24:24;33.22;;;18.80;;
56161;SDS011;42045;52.986;6.014;2023-04-01T05:26:50;29.50;;;17.25;;
56161;SDS011;42045;52.986;6.014;2023-04-01T05:29:15;30.08;;;17.65;;
56161;SDS011;42045;52.986;6.014;2023-04-01T05:31:41;30.63;;;17.73;;
56161;SDS011;42045;52.986;6.014;2023-04-01T05:34:06;30.55;;;17.60;;
56161;SDS011;42045;52.986;6.014;2023-04-01T05:36:32;25.10;;;14.85;;
56161;SDS011;42045;52.986;6.014;2023-04-01T05:38:59;33.30;;;18.30;;
56161;SDS011;42045;52.986;6.014;2023-04-01T05:41:25;48.70;;;18.90;;
56161;SDS011;42045;52.986;6.014;2023-04-01T05:43:50;29.92;;;16.70;;
56161;SDS011;42045;52.986;6.014;2023-04-01T05:46:16;129.63;;;23.77;;
56161;SDS011;42045;52.986;6.014;2023-04-01T05:48:42;60.03;;;19.20;;
56161;SDS011;42045;52.986;6.014;2023-04-01T05:51:12;77.47;;;19.23;;
56161;SDS011;42045;52.986;6.014;2023-04-01T05:53:39;28.05;;;15.98;;
56161;SDS011;42045;52.986;6.014;2023-04-01T05:56:05;57.38;;;18.48;;
56161;SDS011;42045;52.986;6.014;2023-04-01T05:58:31;83.65;;;19.98;;
56161;SDS011;42045;52.986;6.014;2023-04-01T06:01:00;31.55;;;17.52;;
56161;SDS011;42045;52.986;6.014;2023-04-01T06:03:30;27.08;;;16.35;;
56161;SDS011;42045;52.986;6.014;2023-04-01T06:05:56;24.00;;;15.18;;
56161;SDS011;42045;52.986;6.014;2023-04-01T06:08:21;24.30;;;15.32;;
56161;SDS011;42045;52.986;6.014;2023-04-01T06:19:21;28.65;;;16.85;;
56161;SDS011;42045;52.986;6.014;2023-04-01T06:21:55;28.65;;;17.15;;
56161;SDS011;42045;52.986;6.014;2023-04-01T06:27:25;31.02;;;16.33;;
56161;SDS011;42045;52.986;6.014;2023-04-01T06:38:32;29.85;;;16.42;;
56161;SDS011;42045;52.986;6.014;2023-04-01T06:52:15;25.03;;;13.27;;
56161;SDS011;42045;52.986;6.014;2023-04-01T06:54:58;27.90;;;13.15;;
56161;SDS011;42045;52.986;6.014;2023-04-01T06:57:55;25.83;;;14.27;;
56161;SDS011;42045;52.986;6.014;2023-04-01T07:02:50;22.38;;;12.63;;
56161;SDS011;42045;52.986;6.014;2023-04-01T07:05:33;20.58;;;12.10;;
56161;SDS011;42045;52.986;6.014;2023-04-01T07:08:01;20.83;;;9.75;;
56161;SDS011;42045;52.986;6.014;2023-04-01T07:13:45;11.43;;;6.50;;
56161;SDS011;42045;52.986;6.014;2023-04-01T07:21:52;4.85;;;3.72;;
56161;SDS011;42045;52.986;6.014;2023-04-01T07:24:26;4.85;;;3.65;;
56161;SDS011;42045;52.986;6.014;2023-04-01T07:26:55;5.18;;;3.78;;
56161;SDS011;42045;52.986;6.014;2023-04-01T07:29:22;6.00;;;4.70;;
56161;SDS011;42045;52.986;6.014;2023-04-01T07:31:56;5.32;;;4.57;;
56161;SDS011;42045;52.986;6.014;2023-04-01T07:34:45;7.53;;;6.20;;
56161;SDS011;42045;52.986;6.014;2023-04-01T07:40:30;8.73;;;5.65;;
56161;SDS011;42045;52.986;6.014;2023-04-01T07:51:22;11.50;;;9.23;;
56161;SDS011;42045;52.986;6.014;2023-04-01T08:05:19;14.45;;;12.18;;
56161;SDS011;42045;52.986;6.014;2023-04-01T08:08:05;15.07;;;12.48;;
56161;SDS011;42045;52.986;6.014;2023-04-01T08:16:09;15.80;;;13.88;;
56161;SDS011;42045;52.986;6.014;2023-04-01T08:18:58;17.67;;;15.77;;
56161;SDS011;42045;52.986;6.014;2023-04-01T08:21:28;16.60;;;14.82;;
56161;SDS011;42045;52.986;6.014;2023-04-01T08:24:25;17.13;;;14.63;;
56161;SDS011;42045;52.986;6.014;2023-04-01T08:26:59;17.80;;;15.88;;
56161;SDS011;42045;52.986;6.014;2023-04-01T08:32:30;16.13;;;14.52;;
56161;SDS011;42045;52.986;6.014;2023-04-01T08:35:08;16.70;;;14.93;;
56161;SDS011;42045;52.986;6.014;2023-04-01T08:37:40;16.83;;;15.10;;
56161;SDS011;42045;52.986;6.014;2023-04-01T08:56:18;17.60;;;15.80;;
56161;SDS011;42045;52.986;6.014;2023-04-01T09:07:21;18.17;;;16.08;;
56161;SDS011;42045;52.986;6.014;2023-04-01T09:26:45;22.02;;;16.83;;
56161;SDS011;42045;52.986;6.014;2023-04-01T09:31:57;22.35;;;18.42;;
56161;SDS011;42045;52.986;6.014;2023-04-01T09:37:27;24.38;;;18.73;;
56161;SDS011;42045;52.986;6.014;2023-04-01T09:40:09;22.58;;;18.42;;
56161;SDS011;42045;52.986;6.014;2023-04-01T09:45:47;24.75;;;19.23;;
56161;SDS011;42045;52.986;6.014;2023-04-01T09:59:22;21.52;;;17.55;;
56161;SDS011;42045;52.986;6.014;2023-04-01T10:36:52;10.73;;;9.23;;
56161;SDS011;42045;52.986;6.014;2023-04-01T10:48:39;10.82;;;8.60;;
56161;SDS011;42045;52.986;6.014;2023-04-01T11:05:14;8.50;;;7.55;;
56161;SDS011;42045;52.986;6.014;2023-04-01T11:28:52;7.50;;;6.75;;
56161;SDS011;42045;52.986;6.014;2023-04-01T11:31:01;8.35;;;6.85;;
56161;SDS011;42045;52.986;6.014;2023-04-01T11:42:34;8.73;;;6.57;;
56161;SDS011;42045;52.986;6.014;2023-04-01T11:47:52;9.13;;;7.20;;
56161;SDS011;42045;52.986;6.014;2023-04-01T12:07:42;5.93;;;5.38;;
56161;SDS011;42045;52.986;6.014;2023-04-01T12:10:46;6.07;;;5.10;;
56161;SDS011;42045;52.986;6.014;2023-04-01T12:13:33;8.52;;;5.68;;
56161;SDS011;42045;52.986;6.014;2023-04-01T12:27:06;5.45;;;4.38;;
56161;SDS011;42045;52.986;6.014;2023-04-01T12:32:31;5.43;;;4.93;;
56161;SDS011;42045;52.986;6.014;2023-04-01T12:40:17;4.60;;;4.20;;
56161;SDS011;42045;52.986;6.014;2023-04-01T12:45:30;5.05;;;4.15;;
56161;SDS011;42045;52.986;6.014;2023-04-01T12:56:14;5.25;;;4.57;;
56161;SDS011;42045;52.986;6.014;2023-04-01T13:07:39;4.50;;;3.90;;
56161;SDS011;42045;52.986;6.014;2023-04-01T13:27:18;4.47;;;4.07;;
56161;SDS011;42045;52.986;6.014;2023-04-01T13:29:59;4.75;;;3.97;;
56161;SDS011;42045;52.986;6.014;2023-04-01T13:43:22;5.03;;;3.70;;
56161;SDS011;42045;52.986;6.014;2023-04-01T13:57:05;6.95;;;3.53;;
56161;SDS011;42045;52.986;6.014;2023-04-01T14:03:15;4.40;;;3.90;;
56161;SDS011;42045;52.986;6.014;2023-04-01T14:16:33;4.40;;;4.00;;
56161;SDS011;42045;52.986;6.014;2023-04-01T14:21:42;3.78;;;3.35;;
56161;SDS011;42045;52.986;6.014;2023-04-01T14:32:54;4.57;;;3.60;;
56161;SDS011;42045;52.986;6.014;2023-04-01T14:46:32;4.47;;;3.30;;
56161;SDS011;42045;52.986;6.014;2023-04-01T14:49:22;4.15;;;2.92;;
56161;SDS011;42045;52.986;6.014;2023-04-01T14:51:49;3.80;;;3.40;;
56161;SDS011;42045;52.986;6.014;2023-04-01T14:54:21;3.60;;;3.10;;
56161;SDS011;42045;52.986;6.014;2023-04-01T14:57:10;3.10;;;2.75;;
56161;SDS011;42045;52.986;6.014;2023-04-01T15:11:11;2.85;;;2.50;;
56161;SDS011;42045;52.986;6.014;2023-04-01T15:14:04;3.33;;;2.95;;
56161;SDS011;42045;52.986;6.014;2023-04-01T15:23:06;3.33;;;2.80;;
56161;SDS011;42045;52.986;6.014;2023-04-01T15:26:02;3.42;;;2.50;;
56161;SDS011;42045;52.986;6.014;2023-04-01T15:34:15;3.60;;;2.60;;
56161;SDS011;42045;52.986;6.014;2023-04-01T15:36:53;3.15;;;2.58;;
56161;SDS011;42045;52.986;6.014;2023-04-01T15:39:38;3.53;;;2.50;;
56161;SDS011;42045;52.986;6.014;2023-04-01T15:47:55;4.70;;;2.78;;
56161;SDS011;42045;52.986;6.014;2023-04-01T15:58:57;3.42;;;2.78;;
56161;SDS011;42045;52.986;6.014;2023-04-01T16:06:55;4.65;;;2.80;;
56161;SDS011;42045;52.986;6.014;2023-04-01T16:12:30;4.68;;;3.35;;
56161;SDS011;42045;52.986;6.014;2023-04-01T16:15:29;3.80;;;2.83;;
56161;SDS011;42045;52.986;6.014;2023-04-01T16:21:10;4.47;;;3.88;;
56161;SDS011;42045;52.986;6.014;2023-04-01T16:23:59;6.88;;;3.70;;
56161;SDS011;42045;52.986;6.014;2023-04-01T16:26:34;7.88;;;3.63;;
56161;SDS011;42045;52.986;6.014;2023-04-01T16:31:43;6.03;;;3.90;;
56161;SDS011;42045;52.986;6.014;2023-04-01T16:34:20;5.43;;;4.32;;
56161;SDS011;42045;52.986;6.014;2023-04-01T16:36:54;4.97;;;3.95;;
56161;SDS011;42045;52.986;6.014;2023-04-01T16:47:45;6.07;;;4.43;;
56161;SDS011;42045;52.986;6.014;2023-04-01T16:53:45;6.63;;;4.43;;
56161;SDS011;42045;52.986;6.014;2023-04-01T16:56:47;6.55;;;4.88;;
56161;SDS011;42045;52.986;6.014;2023-04-01T16:59:24;6.93;;;4.95;;
56161;SDS011;42045;52.986;6.014;2023-04-01T17:02:03;7.05;;;5.25;;
56161;SDS011;42045;52.986;6.014;2023-04-01T17:04:35;8.82;;;4.80;;
56161;SDS011;42045;52.986;6.014;2023-04-01T17:07:37;6.95;;;5.07;;
56161;SDS011;42045;52.986;6.014;2023-04-01T17:10:51;6.65;;;4.80;;
56161;SDS011;42045;52.986;6.014;2023-04-01T17:13:31;6.93;;;4.35;;
56161;SDS011;42045;52.986;6.014;2023-04-01T17:24:01;7.72;;;5.22;;
56161;SDS011;42045;52.986;6.014;2023-04-01T17:27:02;11.18;;;6.47;;
56161;SDS011;42045;52.986;6.014;2023-04-01T17:29:43;7.55;;;6.15;;
56161;SDS011;42045;52.986;6.014;2023-04-01T17:32:36;8.00;;;6.55;;
56161;SDS011;42045;52.986;6.014;2023-04-01T17:44:07;8.07;;;6.32;;
56161;SDS011;42045;52.986;6.014;2023-04-01T17:52:06;8.02;;;6.38;;
56161;SDS011;42045;52.986;6.014;2023-04-01T17:54:41;9.32;;;6.45;;
56161;SDS011;42045;52.986;6.014;2023-04-01T17:57:22;8.98;;;6.22;;
56161;SDS011;42045;52.986;6.014;2023-04-01T18:11:18;8.57;;;5.95;;
56161;SDS011;42045;52.986;6.014;2023-04-01T18:22:28;10.90;;;7.00;;
56161;SDS011;42045;52.986;6.014;2023-04-01T18:25:18;9.05;;;7.07;;
56161;SDS011;42045;52.986;6.014;2023-04-01T18:30:32;9.00;;;6.82;;
56161;SDS011;42045;52.986;6.014;2023-04-01T18:38:40;9.10;;;7.05;;
56161;SDS011;42045;52.986;6.014;2023-04-01T18:46:48;11.68;;;7.25;;
56161;SDS011;42045;52.986;6.014;2023-04-01T18:49:16;9.38;;;6.40;;
56161;SDS011;42045;52.986;6.014;2023-04-01T18:51:53;9.38;;;6.47;;
56161;SDS011;42045;52.986;6.014;2023-04-01T18:57:16;10.93;;;5.90;;
56161;SDS011;42045;52.986;6.014;2023-04-01T18:59:50;8.00;;;6.43;;
56161;SDS011;42045;52.986;6.014;2023-04-01T19:02:38;8.18;;;5.85;;
56161;SDS011;42045;52.986;6.014;2023-04-01T19:05:16;9.18;;;6.00;;
56161;SDS011;42045;52.986;6.014;2023-04-01T19:07:52;9.68;;;6.22;;
56161;SDS011;42045;52.986;6.014;2023-04-01T19:13:12;9.35;;;7.65;;
56161;SDS011;42045;52.986;6.014;2023-04-01T19:16:05;11.80;;;8.05;;
56161;SDS011;42045;52.986;6.014;2023-04-01T19:21:29;11.55;;;8.52;;
56161;SDS011;42045;52.986;6.014;2023-04-01T19:24:13;11.18;;;8.40;;
56161;SDS011;42045;52.986;6.014;2023-04-01T19:29:43;13.82;;;8.18;;
56161;SDS011;42045;52.986;6.014;2023-04-01T19:32:42;10.85;;;7.15;;
56161;SDS011;42045;52.986;6.014;2023-04-01T19:46:30;12.73;;;8.00;;
56161;SDS011;42045;52.986;6.014;2023-04-01T19:49:20;14.88;;;8.63;;
56161;SDS011;42045;52.986;6.014;2023-04-01T19:51:53;13.18;;;8.88;;
56161;SDS011;42045;52.986;6.014;2023-04-01T19:57:12;14.85;;;8.82;;
56161;SDS011;42045;52.986;6.014;2023-04-01T20:07:52;14.48;;;7.97;;
56161;SDS011;42045;52.986;6.014;2023-04-01T20:10:55;14.25;;;8.60;;
56161;SDS011;42045;52.986;6.014;2023-04-01T20:16:16;15.40;;;8.73;;
56161;SDS011;42045;52.986;6.014;2023-04-01T20:18:52;13.63;;;8.05;;
56161;SDS011;42045;52.986;6.014;2023-04-01T20:26:39;13.75;;;8.68;;
56161;SDS011;42045;52.986;6.014;2023-04-01T20:34:50;11.63;;;8.77;;
56161;SDS011;42045;52.986;6.014;2023-04-01T20:40:20;11.73;;;8.25;;
56161;SDS011;42045;52.986;6.014;2023-04-01T20:43:00;14.35;;;8.55;;
56161;SDS011;42045;52.986;6.014;2023-04-01T20:48:45;14.90;;;8.57;;
56161;SDS011;42045;52.986;6.014;2023-04-01T20:51:31;11.43;;;7.78;;
56161;SDS011;42045;52.986;6.014;2023-04-01T21:31:01;11.30;;;6.80;;
56161;SDS011;42045;52.986;6.014;2023-04-01T21:41:48;9.70;;;6.55;;
56161;SDS011;42045;52.986;6.014;2023-04-01T21:59:01;11.27;;;6.53;;
56161;SDS011;42045;52.986;6.014;2023-04-01T22:01:49;14.68;;;6.15;;
56161;SDS011;42045;52.986;6.014;2023-04-01T22:04:41;11.15;;;6.18;;
56161;SDS011;42045;52.986;6.014;2023-04-01T22:13:20;11.82;;;6.57;;
56161;SDS011;42045;52.986;6.014;2023-04-01T22:15:58;12.57;;;7.00;;
56161;SDS011;42045;52.986;6.014;2023-04-01T22:21:29;14.32;;;6.55;;
56161;SDS011;42045;52.986;6.014;2023-04-01T22:24:13;10.15;;;6.90;;
56161;SDS011;42045;52.986;6.014;2023-04-01T22:32:41;12.82;;;6.55;;
56161;SDS011;42045;52.986;6.014;2023-04-01T22:41:00;10.85;;;5.70;;
56161;SDS011;42045;52.986;6.014;2023-04-01T22:43:37;10.95;;;6.93;;
56161;SDS011;42045;52.986;6.014;2023-04-01T22:46:11;8.98;;;5.45;;
56161;SDS011;42045;52.986;6.014;2023-04-01T22:55:05;10.98;;;5.85;;
56161;SDS011;42045;52.986;6.014;2023-04-01T23:05:37;10.45;;;5.93;;
56161;SDS011;42045;52.986;6.014;2023-04-01T23:10:55;10.43;;;5.90;;
56161;SDS011;42045;52.986;6.014;2023-04-01T23:14:02;11.38;;;6.05;;
56161;SDS011;42045;52.986;6.014;2023-04-01T23:16:32;11.60;;;6.05;;
56161;SDS011;42045;52.986;6.014;2023-04-01T23:22:03;9.57;;;5.55;;
56161;SDS011;42045;52.986;6.014;2023-04-01T23:24:38;8.63;;;5.35;;
56161;SDS011;42045;52.986;6.014;2023-04-01T23:27:23;9.85;;;5.75;;
56161;SDS011;42045;52.986;6.014;2023-04-01T23:35:54;11.85;;;4.95;;
56161;SDS011;42045;52.986;6.014;2023-04-01T23:38:38;9.07;;;4.40;;
56161;SDS011;42045;52.986;6.014;2023-04-01T23:41:06;11.88;;;6.85;;
56161;SDS011;42045;52.986;6.014;2023-04-01T23:44:01;7.65;;;4.82;;
56161;SDS011;42045;52.986;6.014;2023-04-01T23:46:30;8.77;;;5.22;;
56161;SDS011;42045;52.986;6.014;2023-04-01T23:48:58;8.13;;;4.75;;
56161;SDS011;42045;52.986;6.014;2023-04-01T23:51:26;7.20;;;5.10;;
56161;SDS011;42045;52.986;6.014;2023-04-01T23:53:57;7.97;;;5.00;;
56161;SDS011;42045;52.986;6.014;2023-04-01T23:56:44;7.45;;;5.32;;
56161;SDS011;42045;52.986;6.014;2023-04-01T23:59:22;7.97;;;4.68;;
